createdAt,value
2019-01-23T00:00:48.136Z,17.00
2019-01-23T00:03:52.056Z,18.23
2019-01-23T00:06:55.852Z,17.57
2019-01-23T00:09:59.743Z,17.33
2019-01-23T00:13:03.651Z,18.23
2019-01-23T00:16:07.581Z,17.03
2019-01-23T00:19:11.577Z,17.50
2019-01-23T00:22:15.515Z,18.60
2019-01-23T00:25:19.309Z,19.00
2019-01-23T00:28:23.163Z,18.30
2019-01-23T00:31:27.087Z,17.70
2019-01-23T00:34:30.934Z,18.03
2019-01-23T00:37:34.762Z,19.63
2019-01-23T00:40:38.566Z,19.47
2019-01-23T00:43:42.417Z,20.13
2019-01-23T00:46:46.264Z,19.17
2019-01-23T00:49:50.074Z,18.73
2019-01-23T00:52:53.935Z,19.43
2019-01-23T00:55:57.771Z,19.73
2019-01-23T00:59:01.622Z,20.03
2019-01-23T01:02:06.171Z,19.63
2019-01-23T01:05:10.432Z,20.10
2019-01-23T01:08:14.261Z,20.67
2019-01-23T01:11:18.207Z,21.00
2019-01-23T01:14:22.057Z,20.90
2019-01-23T01:17:25.951Z,22.27
2019-01-23T01:20:29.943Z,19.30
2019-01-23T01:23:33.851Z,23.03
2019-01-23T01:26:37.697Z,21.60
2019-01-23T01:29:41.531Z,21.33
2019-01-23T01:32:45.532Z,22.37
2019-01-23T01:35:49.398Z,21.20
2019-01-23T01:38:53.288Z,20.50
2019-01-23T01:41:57.134Z,21.83
2019-01-23T01:45:01.028Z,20.63
2019-01-23T01:48:05.365Z,20.63
2019-01-23T01:51:09.204Z,22.43
2019-01-23T01:54:13.025Z,21.60
2019-01-23T01:57:17.029Z,20.63
2019-01-23T02:00:22.987Z,20.20
2019-01-23T02:03:26.817Z,19.97
2019-01-23T02:06:30.785Z,20.63
2019-01-23T02:09:35.583Z,21.30
2019-01-23T02:12:39.597Z,21.20
2019-01-23T02:15:43.438Z,21.33
2019-01-23T02:18:47.315Z,21.23
2019-01-23T02:21:51.210Z,22.23
2019-01-23T02:24:55.039Z,21.03
2019-01-23T02:27:59.015Z,22.53
2019-01-23T02:31:02.926Z,22.17
2019-01-23T02:34:06.874Z,22.73
2019-01-23T02:37:10.725Z,22.13
2019-01-23T02:40:17.207Z,23.13
2019-01-23T02:43:21.120Z,21.70
2019-01-23T02:46:24.998Z,23.30
2019-01-23T02:49:28.782Z,22.67
2019-01-23T02:52:32.608Z,24.57
2019-01-23T02:55:36.416Z,23.33
2019-01-23T02:58:40.279Z,24.10
2019-01-23T03:01:44.124Z,22.77
2019-01-23T03:04:47.911Z,26.07
2019-01-23T03:07:51.828Z,24.93
2019-01-23T03:10:55.652Z,25.17
2019-01-23T03:13:59.573Z,24.53
2019-01-23T03:17:03.538Z,24.93
2019-01-23T03:20:09.152Z,25.10
2019-01-23T03:23:12.975Z,24.20
2019-01-23T03:26:16.815Z,25.03
2019-01-23T03:29:24.570Z,25.37
2019-01-23T03:32:26.209Z,26.90
2019-01-23T03:35:30.122Z,25.30
2019-01-23T03:38:34.121Z,25.77
2019-01-23T03:41:38.119Z,25.17
2019-01-23T03:44:41.998Z,26.57
2019-01-23T03:47:48.149Z,26.77
2019-01-23T03:50:51.917Z,26.87
2019-01-23T03:53:55.699Z,26.33
2019-01-23T03:56:59.626Z,25.53
2019-01-23T04:00:04.138Z,27.27
2019-01-23T04:03:08.142Z,27.37
2019-01-23T04:06:12.019Z,27.00
2019-01-23T04:09:15.840Z,26.03
2019-01-23T04:12:19.711Z,28.43
2019-01-23T04:15:23.592Z,27.00
2019-01-23T04:18:27.564Z,28.27
2019-01-23T04:21:31.444Z,28.07
2019-01-23T04:24:35.261Z,27.97
2019-01-23T04:27:39.141Z,28.00
2019-01-23T04:30:42.958Z,27.47
2019-01-23T04:33:46.763Z,29.83
2019-01-23T04:36:50.572Z,29.20
2019-01-23T04:39:54.370Z,28.10
2019-01-23T04:42:58.275Z,28.97
2019-01-23T04:46:02.097Z,28.40
2019-01-23T04:49:05.987Z,28.33
2019-01-23T04:52:15.194Z,28.13
2019-01-23T04:55:19.213Z,30.70
2019-01-23T04:58:23.017Z,28.77
2019-01-23T05:01:26.976Z,29.07
2019-01-23T05:04:30.864Z,31.23
2019-01-23T05:07:34.665Z,29.47
2019-01-23T05:10:38.490Z,29.20
2019-01-23T05:13:42.301Z,30.30
2019-01-23T05:16:46.123Z,30.80
2019-01-23T05:19:49.948Z,30.30
2019-01-23T05:22:53.901Z,28.43
2019-01-23T05:25:57.859Z,28.70
2019-01-23T05:29:01.697Z,29.43
2019-01-23T05:32:05.642Z,28.77
2019-01-23T05:35:09.635Z,29.17
2019-01-23T05:38:13.535Z,29.17
2019-01-23T05:41:17.363Z,29.80
2019-01-23T05:44:22.301Z,31.07
2019-01-23T05:47:26.172Z,30.70
2019-01-23T05:50:30.092Z,30.53
2019-01-23T05:53:33.901Z,31.07
2019-01-23T05:56:37.789Z,30.93
2019-01-23T05:59:41.624Z,30.00
2019-01-23T06:02:45.565Z,30.77
2019-01-23T06:05:49.520Z,31.10
2019-01-23T06:08:53.371Z,32.93
2019-01-23T06:11:57.169Z,31.67
2019-01-23T06:15:01.094Z,32.87
2019-01-23T06:18:05.054Z,31.37
2019-01-23T06:21:08.950Z,31.03
2019-01-23T06:24:12.817Z,33.03
2019-01-23T06:27:16.747Z,33.53
2019-01-23T06:30:23.079Z,32.73
2019-01-23T06:33:26.882Z,33.03
2019-01-23T06:36:30.790Z,30.83
2019-01-23T06:39:34.676Z,33.40
2019-01-23T06:42:38.678Z,31.97
2019-01-23T06:45:42.482Z,32.17
2019-01-23T06:48:46.302Z,32.33
2019-01-23T06:51:50.129Z,32.97
2019-01-23T06:54:53.956Z,32.80
2019-01-23T06:57:57.762Z,32.37
2019-01-23T07:01:01.592Z,31.97
2019-01-23T07:04:05.631Z,32.03
2019-01-23T07:07:09.458Z,32.70
2019-01-23T07:10:18.912Z,33.67
2019-01-23T07:13:22.787Z,33.67
2019-01-23T07:16:26.606Z,33.17
2019-01-23T07:19:30.434Z,33.50
2019-01-23T07:22:34.233Z,32.90
2019-01-23T07:25:38.120Z,34.47
2019-01-23T07:28:41.922Z,34.77
2019-01-23T07:31:45.823Z,35.73
2019-01-23T07:34:49.715Z,37.37
2019-01-23T07:37:53.628Z,34.67
2019-01-23T07:40:57.537Z,35.40
2019-01-23T07:44:01.378Z,36.13
2019-01-23T07:47:05.258Z,38.17
2019-01-23T07:50:10.402Z,38.10
2019-01-23T07:53:14.280Z,38.77
2019-01-23T07:56:18.108Z,37.03
2019-01-23T07:59:21.994Z,38.80
2019-01-23T08:02:25.801Z,40.47
2019-01-23T08:05:29.672Z,40.20
2019-01-23T08:08:33.553Z,38.30
2019-01-23T08:11:37.433Z,40.07
2019-01-23T08:14:42.205Z,37.80
2019-01-23T08:17:46.104Z,36.97
2019-01-23T08:20:50.343Z,40.20
2019-01-23T08:23:54.156Z,37.90
2019-01-23T08:26:58.047Z,38.73
2019-01-23T08:30:01.854Z,37.30
2019-01-23T08:33:06.043Z,40.47
2019-01-23T08:36:09.981Z,40.07
2019-01-23T08:39:13.908Z,38.33
2019-01-23T08:42:17.702Z,39.27
2019-01-23T08:45:21.700Z,38.10
2019-01-23T08:48:25.509Z,38.80
2019-01-23T08:51:29.333Z,41.30
2019-01-23T08:54:33.134Z,38.17
2019-01-23T08:57:36.957Z,40.33
2019-01-23T09:00:45.777Z,38.50
2019-01-23T09:03:46.473Z,39.23
2019-01-23T09:06:50.271Z,38.87
2019-01-23T09:09:54.085Z,39.07
2019-01-23T09:12:57.968Z,39.50
2019-01-23T09:16:01.857Z,39.70
2019-01-23T09:19:05.749Z,38.77
2019-01-23T09:22:09.622Z,41.07
2019-01-23T09:25:15.908Z,39.60
2019-01-23T09:28:19.731Z,41.77
2019-01-23T09:31:58.047Z,40.77
2019-01-23T09:35:22.580Z,39.77
2019-01-23T09:39:00.566Z,39.83
2019-01-23T09:42:41.850Z,43.67
2019-01-23T09:46:45.174Z,40.13
2019-01-23T09:50:02.069Z,40.17
2019-01-23T09:53:14.472Z,39.97
2019-01-23T09:56:19.361Z,40.43
2019-01-23T09:59:23.176Z,40.30
2019-01-23T10:02:26.985Z,42.33
2019-01-23T10:05:30.802Z,39.07
2019-01-23T10:08:34.696Z,40.50
2019-01-23T10:11:38.527Z,40.37
2019-01-23T10:14:42.381Z,42.90
2019-01-23T10:17:46.267Z,43.73
2019-01-23T10:20:50.200Z,41.07
2019-01-23T10:23:53.994Z,42.27
2019-01-23T10:26:57.963Z,38.60
2019-01-23T10:30:01.875Z,39.90
2019-01-23T10:33:05.817Z,37.17
2019-01-23T10:36:09.840Z,38.23
2019-01-23T10:39:13.657Z,40.70
2019-01-23T10:42:17.618Z,40.50
2019-01-23T10:45:21.577Z,41.57
2019-01-23T10:48:25.400Z,39.53
2019-01-23T10:51:29.296Z,39.20
2019-01-23T10:54:33.153Z,37.17
2019-01-23T10:57:37.115Z,36.30
2019-01-23T11:00:41.115Z,36.73
2019-01-23T11:03:44.988Z,36.47
2019-01-23T11:06:48.809Z,37.73
2019-01-23T11:09:52.695Z,37.47
2019-01-23T11:12:56.515Z,39.03
2019-01-23T11:16:00.482Z,36.57
2019-01-23T11:19:04.569Z,36.20
2019-01-23T11:22:08.447Z,37.60
2019-01-23T11:25:12.835Z,34.93
2019-01-23T11:28:16.791Z,37.57
2019-01-23T11:31:20.717Z,36.73
2019-01-23T11:34:24.660Z,38.43
2019-01-23T11:37:28.560Z,35.50
2019-01-23T11:40:32.607Z,35.37
2019-01-23T11:43:36.559Z,35.53
2019-01-23T11:46:40.581Z,32.27
2019-01-23T11:49:44.400Z,34.40
2019-01-23T11:52:49.409Z,33.47
2019-01-23T11:55:53.210Z,32.57
2019-01-23T11:58:57.023Z,32.80
2019-01-23T12:02:00.993Z,33.13
2019-01-23T12:05:06.084Z,31.47
2019-01-23T12:08:10.161Z,32.43
2019-01-23T12:11:14.091Z,31.53
2019-01-23T12:14:17.914Z,30.93
2019-01-23T12:17:21.731Z,33.73
2019-01-23T12:20:25.708Z,32.73
2019-01-23T12:23:29.533Z,34.27
2019-01-23T12:26:33.444Z,32.67
2019-01-23T12:29:37.286Z,33.20
2019-01-23T12:32:41.197Z,31.43
2019-01-23T12:35:45.087Z,34.73
2019-01-23T12:38:48.919Z,34.10
2019-01-23T12:41:52.925Z,33.23
2019-01-23T12:44:56.843Z,31.70
2019-01-23T12:48:00.848Z,31.37
2019-01-23T12:51:04.834Z,33.33
2019-01-23T12:54:08.747Z,32.73
2019-01-23T12:57:12.638Z,33.40
2019-01-23T13:00:24.802Z,32.83
2019-01-23T13:03:28.772Z,34.47
2019-01-23T13:06:32.837Z,32.90
2019-01-23T13:09:36.718Z,33.63
2019-01-23T13:12:40.806Z,33.93
2019-01-23T13:15:44.606Z,34.57
2019-01-23T13:18:48.421Z,34.97
2019-01-23T13:21:52.252Z,33.37
2019-01-23T13:24:56.053Z,35.10
2019-01-23T13:28:01.750Z,35.57
2019-01-23T13:31:05.719Z,32.57
2019-01-23T13:34:09.588Z,36.57
2019-01-23T13:37:13.496Z,32.57
2019-01-23T13:40:37.026Z,34.13
2019-01-23T13:43:40.843Z,33.03
2019-01-23T13:46:44.853Z,33.40
2019-01-23T13:49:48.662Z,33.60
2019-01-23T13:52:52.558Z,33.50
2019-01-23T13:55:56.507Z,34.60
2019-01-23T13:59:00.403Z,34.23
2019-01-23T14:02:04.387Z,33.63
2019-01-23T14:05:09.163Z,32.20
2019-01-23T14:08:13.129Z,31.47
2019-01-23T14:11:16.959Z,33.23
2019-01-23T14:14:20.774Z,32.83
2019-01-23T14:17:24.613Z,32.00
2019-01-23T14:20:28.803Z,32.73
2019-01-23T14:23:32.625Z,33.27
2019-01-23T14:26:36.427Z,34.37
2019-01-23T14:29:40.336Z,33.77
2019-01-23T14:32:44.211Z,38.07
2019-01-23T14:35:48.396Z,42.63
2019-01-23T14:38:52.210Z,37.97
2019-01-23T14:41:56.154Z,35.53
2019-01-23T14:44:59.963Z,40.00
2019-01-23T14:48:04.171Z,37.83
2019-01-23T14:51:08.041Z,34.53
2019-01-23T14:54:11.848Z,33.13
2019-01-23T14:57:15.757Z,34.63
2019-01-23T15:00:25.066Z,34.63
2019-01-23T15:03:28.913Z,33.67
2019-01-23T15:06:32.783Z,34.43
2019-01-23T15:09:36.605Z,35.73
2019-01-23T15:12:40.536Z,35.23
2019-01-23T15:15:44.437Z,34.03
2019-01-23T15:18:48.296Z,35.03
2019-01-23T15:21:52.116Z,34.97
2019-01-23T15:24:56.033Z,33.67
2019-01-23T15:27:59.972Z,32.43
2019-01-23T15:31:03.973Z,34.23
2019-01-23T15:34:08.162Z,36.90
2019-01-23T15:37:11.965Z,35.20
2019-01-23T15:40:18.941Z,34.07
2019-01-23T15:43:22.758Z,32.80
2019-01-23T15:46:26.643Z,36.17
2019-01-23T15:49:30.611Z,35.60
2019-01-23T15:52:34.395Z,35.97
2019-01-23T15:55:38.371Z,36.00
2019-01-23T15:58:42.238Z,36.10
2019-01-23T16:01:46.136Z,34.80
2019-01-23T16:04:49.986Z,32.80
2019-01-23T16:07:53.866Z,35.40
2019-01-23T16:10:57.771Z,36.60
2019-01-23T16:14:01.587Z,36.60
2019-01-23T16:17:05.597Z,40.37
2019-01-23T16:20:10.532Z,37.40
2019-01-23T16:23:14.493Z,34.97
2019-01-23T16:26:18.386Z,40.93
2019-01-23T16:29:22.231Z,43.13
2019-01-23T16:32:31.436Z,36.73
2019-01-23T16:35:38.494Z,36.63
2019-01-23T16:38:38.051Z,34.73
2019-01-23T16:41:41.878Z,35.57
2019-01-23T16:44:45.773Z,32.30
2019-01-23T16:47:49.858Z,33.00
2019-01-23T16:50:53.732Z,37.17
2019-01-23T16:53:57.559Z,47.33
2019-01-23T16:57:01.429Z,49.17
2019-01-23T17:00:07.700Z,54.17
2019-01-23T17:03:12.183Z,45.50
2019-01-23T17:06:16.097Z,37.80
2019-01-23T17:09:20.053Z,35.83
2019-01-23T17:12:23.881Z,36.53
2019-01-23T17:15:27.860Z,32.73
2019-01-23T17:18:31.749Z,35.00
2019-01-23T17:21:35.546Z,35.40
2019-01-23T17:24:39.374Z,33.67
2019-01-23T17:27:43.260Z,31.77
2019-01-23T17:30:47.166Z,33.37
2019-01-23T17:33:51.038Z,31.30
2019-01-23T17:36:54.953Z,32.20
2019-01-23T17:39:58.749Z,35.00
2019-01-23T17:43:02.675Z,32.83
2019-01-23T17:46:06.535Z,31.07
2019-01-23T17:49:10.431Z,32.17
2019-01-23T17:52:14.228Z,33.43
2019-01-23T17:55:21.385Z,33.70
2019-01-23T17:58:25.270Z,33.20
2019-01-23T18:01:29.229Z,33.93
2019-01-23T18:04:33.071Z,40.20
2019-01-23T18:07:37.070Z,40.13
2019-01-23T18:10:40.858Z,41.77
2019-01-23T18:13:44.665Z,39.43
2019-01-23T18:16:48.533Z,42.13
2019-01-23T18:19:52.357Z,38.07
2019-01-23T18:22:56.357Z,38.73
2019-01-23T18:26:00.238Z,37.50
2019-01-23T18:29:04.209Z,43.67
2019-01-23T18:32:09.930Z,39.30
2019-01-23T18:35:38.437Z,33.43
2019-01-23T18:38:57.266Z,32.70
2019-01-23T18:42:33.786Z,34.00
2019-01-23T18:46:22.611Z,34.20
2019-01-23T18:50:12.502Z,33.33
2019-01-23T18:53:16.487Z,35.03
2019-01-23T18:56:20.359Z,33.47
2019-01-23T18:59:24.166Z,37.77
2019-01-23T19:02:28.062Z,40.27
2019-01-23T19:05:31.950Z,37.63
2019-01-23T19:08:35.759Z,37.07
2019-01-23T19:11:39.647Z,38.23
2019-01-23T19:14:43.722Z,36.40
2019-01-23T19:17:47.665Z,37.07
2019-01-23T19:20:51.604Z,35.23
2019-01-23T19:23:55.498Z,36.40
2019-01-23T19:26:59.439Z,35.13
2019-01-23T19:30:09.183Z,34.43
2019-01-23T19:33:13.506Z,35.73
2019-01-23T19:36:15.446Z,34.97
2019-01-23T19:39:19.310Z,35.13
2019-01-23T19:42:23.132Z,33.47
2019-01-23T19:45:26.943Z,34.47
2019-01-23T19:48:30.839Z,37.07
2019-01-23T19:51:34.796Z,39.20
2019-01-23T19:54:38.681Z,40.20
2019-01-23T19:57:42.475Z,37.60
2019-01-23T20:00:46.356Z,35.83
2019-01-23T20:03:50.165Z,40.50
2019-01-23T20:06:54.039Z,37.87
2019-01-23T20:09:57.927Z,34.67
2019-01-23T20:13:01.797Z,34.67
2019-01-23T20:16:05.663Z,33.30
2019-01-23T20:19:12.997Z,34.13
2019-01-23T20:22:16.826Z,38.73
2019-01-23T20:25:22.825Z,37.63
2019-01-23T20:28:26.750Z,37.37
2019-01-23T20:31:30.565Z,36.67
2019-01-23T20:34:34.468Z,33.53
2019-01-23T20:37:38.275Z,34.93
2019-01-23T20:40:42.161Z,34.50
2019-01-23T20:43:45.968Z,34.47
2019-01-23T20:46:49.870Z,35.53
2019-01-23T20:49:53.692Z,35.00
2019-01-23T20:52:57.504Z,35.63
2019-01-23T20:56:01.338Z,37.37
2019-01-23T20:59:05.522Z,37.10
2019-01-23T21:02:09.473Z,39.40
2019-01-23T21:05:13.373Z,44.73
2019-01-23T21:08:17.224Z,41.13
2019-01-23T21:11:21.043Z,37.37
2019-01-23T21:14:24.950Z,40.47
2019-01-23T21:17:28.859Z,40.83
2019-01-23T21:20:35.198Z,40.77
2019-01-23T21:23:39.029Z,38.03
2019-01-23T21:26:42.903Z,35.63
2019-01-23T21:29:46.743Z,38.13
2019-01-23T21:32:50.538Z,36.67
2019-01-23T21:35:54.357Z,37.03
2019-01-23T21:38:58.179Z,37.63
2019-01-23T21:42:02.061Z,37.03
2019-01-23T21:45:07.406Z,36.37
2019-01-23T21:48:11.212Z,38.47
2019-01-23T21:51:15.134Z,39.77
2019-01-23T21:54:18.939Z,39.20
2019-01-23T21:57:22.831Z,37.43
2019-01-23T22:00:38.527Z,37.70
2019-01-23T22:03:49.057Z,46.37
2019-01-23T22:06:47.957Z,38.27
2019-01-23T22:09:51.856Z,36.23
2019-01-23T22:12:55.653Z,39.93
2019-01-23T22:15:59.639Z,43.37
2019-01-23T22:19:03.418Z,41.10
2019-01-23T22:22:08.046Z,39.83
2019-01-23T22:25:13.192Z,41.23
2019-01-23T22:28:17.005Z,40.80
2019-01-23T22:31:20.920Z,42.27
2019-01-23T22:34:24.768Z,38.00
2019-01-23T22:37:28.573Z,49.10
2019-01-23T22:40:32.380Z,41.97
2019-01-23T22:43:36.185Z,44.87
2019-01-23T22:46:40.016Z,46.23
2019-01-23T22:49:43.914Z,45.57
2019-01-23T22:52:48.078Z,48.30
2019-01-23T22:55:51.902Z,41.37
2019-01-23T22:58:55.734Z,45.63
2019-01-23T23:01:59.548Z,40.77
2019-01-23T23:05:03.433Z,39.87
2019-01-23T23:08:07.992Z,39.50
2019-01-23T23:11:11.900Z,40.03
2019-01-23T23:14:15.730Z,40.63
2019-01-23T23:17:19.603Z,38.87
2019-01-23T23:20:23.586Z,39.40
2019-01-23T23:23:27.474Z,38.57
2019-01-23T23:26:31.316Z,41.33
2019-01-23T23:29:35.205Z,39.33
2019-01-23T23:32:39.107Z,42.53
2019-01-23T23:35:42.915Z,41.70
2019-01-23T23:38:46.805Z,38.73
2019-01-23T23:41:50.618Z,42.53
2019-01-23T23:44:54.453Z,40.10
2019-01-23T23:47:58.285Z,41.50
2019-01-23T23:51:02.196Z,39.23
2019-01-23T23:54:06.175Z,42.23
2019-01-23T23:57:10.003Z,41.90
